sensor_id;sensor_type;location;lat;lon;timestamp;P1;durP1;ratioP1;P2;durP2;ratioP2
16977;SDS011;8605;52.548;4.918;2022-12-18T00:03:29;58.33;;;19.80;;
16977;SDS011;8605;52.548;4.918;2022-12-18T00:08:32;66.97;;;21.23;;
16977;SDS011;8605;52.548;4.918;2022-12-18T00:13:35;54.93;;;23.00;;
16977;SDS011;8605;52.548;4.918;2022-12-18T00:18:40;44.13;;;19.30;;
16977;SDS011;8605;52.548;4.918;2022-12-18T00:23:44;61.63;;;20.73;;
16977;SDS011;8605;52.548;4.918;2022-12-18T00:28:47;76.40;;;21.57;;
16977;SDS011;8605;52.548;4.918;2022-12-18T00:33:52;72.63;;;24.20;;
16977;SDS011;8605;52.548;4.918;2022-12-18T00:38:56;62.10;;;21.67;;
16977;SDS011;8605;52.548;4.918;2022-12-18T00:44:00;54.13;;;22.27;;
16977;SDS011;8605;52.548;4.918;2022-12-18T00:49:04;57.33;;;18.90;;
16977;SDS011;8605;52.548;4.918;2022-12-18T00:54:07;60.43;;;22.47;;
16977;SDS011;8605;52.548;4.918;2022-12-18T00:59:10;78.80;;;23.03;;
16977;SDS011;8605;52.548;4.918;2022-12-18T01:04:15;66.10;;;21.53;;
16977;SDS011;8605;52.548;4.918;2022-12-18T01:09:19;69.23;;;24.63;;
16977;SDS011;8605;52.548;4.918;2022-12-18T01:14:22;67.47;;;22.73;;
16977;SDS011;8605;52.548;4.918;2022-12-18T01:19:28;58.17;;;21.47;;
16977;SDS011;8605;52.548;4.918;2022-12-18T01:24:31;70.03;;;21.63;;
16977;SDS011;8605;52.548;4.918;2022-12-18T01:29:33;57.10;;;18.63;;
16977;SDS011;8605;52.548;4.918;2022-12-18T01:34:38;63.63;;;20.63;;
16977;SDS011;8605;52.548;4.918;2022-12-18T01:39:40;78.53;;;21.53;;
16977;SDS011;8605;52.548;4.918;2022-12-18T01:44:57;68.97;;;19.90;;
16977;SDS011;8605;52.548;4.918;2022-12-18T01:50:06;66.17;;;20.90;;
16977;SDS011;8605;52.548;4.918;2022-12-18T01:55:10;71.17;;;19.93;;
16977;SDS011;8605;52.548;4.918;2022-12-18T02:00:16;56.43;;;19.63;;
16977;SDS011;8605;52.548;4.918;2022-12-18T02:05:22;64.53;;;20.53;;
16977;SDS011;8605;52.548;4.918;2022-12-18T02:10:31;51.60;;;21.93;;
16977;SDS011;8605;52.548;4.918;2022-12-18T02:15:38;61.97;;;21.10;;
16977;SDS011;8605;52.548;4.918;2022-12-18T02:20:45;49.53;;;19.23;;
16977;SDS011;8605;52.548;4.918;2022-12-18T02:25:54;66.80;;;24.07;;
16977;SDS011;8605;52.548;4.918;2022-12-18T02:31:04;67.83;;;23.43;;
16977;SDS011;8605;52.548;4.918;2022-12-18T02:36:09;61.03;;;22.70;;
16977;SDS011;8605;52.548;4.918;2022-12-18T02:41:14;61.57;;;22.03;;
16977;SDS011;8605;52.548;4.918;2022-12-18T02:46:26;67.47;;;20.70;;
16977;SDS011;8605;52.548;4.918;2022-12-18T02:51:36;58.60;;;20.23;;
16977;SDS011;8605;52.548;4.918;2022-12-18T02:56:46;69.70;;;22.00;;
16977;SDS011;8605;52.548;4.918;2022-12-18T03:01:54;59.30;;;19.47;;
16977;SDS011;8605;52.548;4.918;2022-12-18T03:07:01;67.10;;;21.30;;
16977;SDS011;8605;52.548;4.918;2022-12-18T03:12:09;65.37;;;18.87;;
16977;SDS011;8605;52.548;4.918;2022-12-18T03:17:30;63.13;;;19.57;;
16977;SDS011;8605;52.548;4.918;2022-12-18T03:22:34;63.00;;;19.93;;
16977;SDS011;8605;52.548;4.918;2022-12-18T03:27:41;49.23;;;16.97;;
16977;SDS011;8605;52.548;4.918;2022-12-18T03:32:50;59.47;;;17.67;;
16977;SDS011;8605;52.548;4.918;2022-12-18T03:38:01;56.53;;;19.27;;
16977;SDS011;8605;52.548;4.918;2022-12-18T03:43:08;46.37;;;18.10;;
16977;SDS011;8605;52.548;4.918;2022-12-18T03:48:15;49.93;;;16.40;;
16977;SDS011;8605;52.548;4.918;2022-12-18T03:53:23;39.40;;;16.20;;
16977;SDS011;8605;52.548;4.918;2022-12-18T03:58:33;44.97;;;18.90;;
16977;SDS011;8605;52.548;4.918;2022-12-18T04:03:48;61.53;;;21.63;;
16977;SDS011;8605;52.548;4.918;2022-12-18T04:08:53;58.60;;;18.87;;
16977;SDS011;8605;52.548;4.918;2022-12-18T04:14:00;50.77;;;16.73;;
16977;SDS011;8605;52.548;4.918;2022-12-18T04:19:08;52.67;;;18.77;;
16977;SDS011;8605;52.548;4.918;2022-12-18T04:24:14;49.67;;;18.97;;
16977;SDS011;8605;52.548;4.918;2022-12-18T04:29:29;49.83;;;19.27;;
16977;SDS011;8605;52.548;4.918;2022-12-18T04:34:33;51.93;;;19.67;;
16977;SDS011;8605;52.548;4.918;2022-12-18T04:39:36;58.43;;;20.90;;
16977;SDS011;8605;52.548;4.918;2022-12-18T04:44:46;54.77;;;22.43;;
16977;SDS011;8605;52.548;4.918;2022-12-18T04:49:49;42.63;;;16.43;;
16977;SDS011;8605;52.548;4.918;2022-12-18T04:54:51;44.53;;;16.47;;
16977;SDS011;8605;52.548;4.918;2022-12-18T04:59:56;53.13;;;17.07;;
16977;SDS011;8605;52.548;4.918;2022-12-18T05:04:58;53.60;;;18.10;;
16977;SDS011;8605;52.548;4.918;2022-12-18T05:10:02;40.00;;;16.03;;
16977;SDS011;8605;52.548;4.918;2022-12-18T05:15:12;47.60;;;15.70;;
16977;SDS011;8605;52.548;4.918;2022-12-18T05:20:14;39.07;;;17.27;;
16977;SDS011;8605;52.548;4.918;2022-12-18T05:25:17;43.90;;;16.47;;
16977;SDS011;8605;52.548;4.918;2022-12-18T05:30:22;49.13;;;17.83;;
16977;SDS011;8605;52.548;4.918;2022-12-18T05:35:25;32.27;;;15.77;;
16977;SDS011;8605;52.548;4.918;2022-12-18T05:40:28;39.00;;;15.87;;
16977;SDS011;8605;52.548;4.918;2022-12-18T05:45:36;43.70;;;16.53;;
16977;SDS011;8605;52.548;4.918;2022-12-18T05:50:39;37.00;;;15.40;;
16977;SDS011;8605;52.548;4.918;2022-12-18T05:55:43;41.50;;;19.07;;
16977;SDS011;8605;52.548;4.918;2022-12-18T06:00:48;42.73;;;16.37;;
16977;SDS011;8605;52.548;4.918;2022-12-18T06:05:51;46.70;;;16.97;;
16977;SDS011;8605;52.548;4.918;2022-12-18T06:10:53;42.43;;;17.60;;
16977;SDS011;8605;52.548;4.918;2022-12-18T06:15:59;47.57;;;16.20;;
16977;SDS011;8605;52.548;4.918;2022-12-18T06:21:04;56.97;;;18.20;;
16977;SDS011;8605;52.548;4.918;2022-12-18T06:26:08;46.37;;;16.57;;
16977;SDS011;8605;52.548;4.918;2022-12-18T06:31:14;50.13;;;18.67;;
16977;SDS011;8605;52.548;4.918;2022-12-18T06:36:16;42.27;;;18.03;;
16977;SDS011;8605;52.548;4.918;2022-12-18T06:41:20;35.53;;;14.87;;
16977;SDS011;8605;52.548;4.918;2022-12-18T06:46:25;31.03;;;15.57;;
16977;SDS011;8605;52.548;4.918;2022-12-18T06:51:27;36.43;;;15.47;;
16977;SDS011;8605;52.548;4.918;2022-12-18T06:56:30;43.50;;;16.43;;
16977;SDS011;8605;52.548;4.918;2022-12-18T07:01:34;37.77;;;13.53;;
16977;SDS011;8605;52.548;4.918;2022-12-18T07:06:37;28.93;;;12.30;;
16977;SDS011;8605;52.548;4.918;2022-12-18T07:11:40;36.80;;;14.57;;
16977;SDS011;8605;52.548;4.918;2022-12-18T07:16:44;30.27;;;12.70;;
16977;SDS011;8605;52.548;4.918;2022-12-18T07:21:47;30.43;;;12.33;;
16977;SDS011;8605;52.548;4.918;2022-12-18T07:26:52;31.37;;;12.77;;
16977;SDS011;8605;52.548;4.918;2022-12-18T07:31:56;20.10;;;11.20;;
16977;SDS011;8605;52.548;4.918;2022-12-18T07:36:59;22.60;;;10.60;;
16977;SDS011;8605;52.548;4.918;2022-12-18T07:42:02;19.80;;;9.50;;
16977;SDS011;8605;52.548;4.918;2022-12-18T07:47:24;19.40;;;9.13;;
16977;SDS011;8605;52.548;4.918;2022-12-18T07:52:28;26.63;;;9.73;;
16977;SDS011;8605;52.548;4.918;2022-12-18T07:57:31;24.67;;;9.80;;
16977;SDS011;8605;52.548;4.918;2022-12-18T08:02:53;15.90;;;8.77;;
16977;SDS011;8605;52.548;4.918;2022-12-18T08:07:56;26.80;;;9.00;;
16977;SDS011;8605;52.548;4.918;2022-12-18T08:12:58;19.93;;;10.17;;
16977;SDS011;8605;52.548;4.918;2022-12-18T08:18:07;24.83;;;10.23;;
16977;SDS011;8605;52.548;4.918;2022-12-18T08:23:14;18.23;;;10.00;;
16977;SDS011;8605;52.548;4.918;2022-12-18T08:28:17;21.37;;;9.07;;
16977;SDS011;8605;52.548;4.918;2022-12-18T08:33:21;24.30;;;9.93;;
16977;SDS011;8605;52.548;4.918;2022-12-18T08:38:24;24.13;;;9.00;;
16977;SDS011;8605;52.548;4.918;2022-12-18T08:43:27;24.73;;;9.73;;
16977;SDS011;8605;52.548;4.918;2022-12-18T08:48:49;23.50;;;9.87;;
16977;SDS011;8605;52.548;4.918;2022-12-18T08:53:52;25.70;;;10.47;;
16977;SDS011;8605;52.548;4.918;2022-12-18T08:58:55;20.63;;;10.87;;
16977;SDS011;8605;52.548;4.918;2022-12-18T09:03:59;21.73;;;11.13;;
16977;SDS011;8605;52.548;4.918;2022-12-18T09:09:03;21.90;;;11.23;;
16977;SDS011;8605;52.548;4.918;2022-12-18T09:14:06;23.63;;;10.47;;
16977;SDS011;8605;52.548;4.918;2022-12-18T09:19:10;20.37;;;11.73;;
16977;SDS011;8605;52.548;4.918;2022-12-18T09:24:13;26.43;;;12.40;;
16977;SDS011;8605;52.548;4.918;2022-12-18T09:29:16;19.67;;;9.43;;
16977;SDS011;8605;52.548;4.918;2022-12-18T09:34:21;25.23;;;11.87;;
16977;SDS011;8605;52.548;4.918;2022-12-18T09:39:23;21.60;;;11.80;;
16977;SDS011;8605;52.548;4.918;2022-12-18T09:44:27;20.87;;;11.10;;
16977;SDS011;8605;52.548;4.918;2022-12-18T09:49:33;20.67;;;10.80;;
16977;SDS011;8605;52.548;4.918;2022-12-18T09:54:38;22.07;;;11.07;;
16977;SDS011;8605;52.548;4.918;2022-12-18T09:59:41;20.17;;;10.97;;
16977;SDS011;8605;52.548;4.918;2022-12-18T10:04:51;25.47;;;12.33;;
16977;SDS011;8605;52.548;4.918;2022-12-18T10:10:04;20.47;;;11.47;;
16977;SDS011;8605;52.548;4.918;2022-12-18T10:15:11;23.50;;;10.60;;
16977;SDS011;8605;52.548;4.918;2022-12-18T10:20:20;24.70;;;11.17;;
16977;SDS011;8605;52.548;4.918;2022-12-18T10:25:28;26.67;;;11.10;;
16977;SDS011;8605;52.548;4.918;2022-12-18T10:30:34;29.27;;;13.67;;
16977;SDS011;8605;52.548;4.918;2022-12-18T10:35:38;25.50;;;11.33;;
16977;SDS011;8605;52.548;4.918;2022-12-18T10:40:50;17.43;;;9.57;;
16977;SDS011;8605;52.548;4.918;2022-12-18T10:45:59;20.43;;;9.80;;
16977;SDS011;8605;52.548;4.918;2022-12-18T10:51:05;17.17;;;10.37;;
16977;SDS011;8605;52.548;4.918;2022-12-18T10:56:13;17.43;;;8.73;;
16977;SDS011;8605;52.548;4.918;2022-12-18T11:01:22;21.93;;;9.17;;
16977;SDS011;8605;52.548;4.918;2022-12-18T11:06:26;14.87;;;9.50;;
16977;SDS011;8605;52.548;4.918;2022-12-18T11:11:29;23.43;;;11.40;;
16977;SDS011;8605;52.548;4.918;2022-12-18T11:16:34;19.47;;;10.33;;
16977;SDS011;8605;52.548;4.918;2022-12-18T11:21:40;20.10;;;9.97;;
16977;SDS011;8605;52.548;4.918;2022-12-18T11:26:44;17.70;;;8.20;;
16977;SDS011;8605;52.548;4.918;2022-12-18T11:31:47;14.77;;;8.57;;
16977;SDS011;8605;52.548;4.918;2022-12-18T11:36:51;20.60;;;10.03;;
16977;SDS011;8605;52.548;4.918;2022-12-18T11:41:56;12.20;;;7.57;;
16977;SDS011;8605;52.548;4.918;2022-12-18T11:47:16;15.70;;;7.63;;
16977;SDS011;8605;52.548;4.918;2022-12-18T11:52:26;16.90;;;8.27;;
16977;SDS011;8605;52.548;4.918;2022-12-18T11:57:34;20.63;;;8.30;;
16977;SDS011;8605;52.548;4.918;2022-12-18T12:02:47;13.10;;;8.03;;
16977;SDS011;8605;52.548;4.918;2022-12-18T12:08:09;18.07;;;7.37;;
16977;SDS011;8605;52.548;4.918;2022-12-18T12:13:21;16.17;;;7.10;;
16977;SDS011;8605;52.548;4.918;2022-12-18T12:18:33;13.23;;;7.63;;
16977;SDS011;8605;52.548;4.918;2022-12-18T12:23:47;12.23;;;6.87;;
16977;SDS011;8605;52.548;4.918;2022-12-18T12:29:01;15.67;;;7.13;;
16977;SDS011;8605;52.548;4.918;2022-12-18T12:34:13;14.07;;;8.27;;
16977;SDS011;8605;52.548;4.918;2022-12-18T12:39:22;14.03;;;6.93;;
16977;SDS011;8605;52.548;4.918;2022-12-18T12:44:27;14.67;;;7.00;;
16977;SDS011;8605;52.548;4.918;2022-12-18T12:49:32;14.47;;;7.37;;
16977;SDS011;8605;52.548;4.918;2022-12-18T12:54:42;12.03;;;6.87;;
16977;SDS011;8605;52.548;4.918;2022-12-18T12:59:47;17.93;;;7.60;;
16977;SDS011;8605;52.548;4.918;2022-12-18T13:04:56;15.23;;;7.30;;
16977;SDS011;8605;52.548;4.918;2022-12-18T13:15:39;17.27;;;6.73;;
16977;SDS011;8605;52.548;4.918;2022-12-18T13:20:45;10.70;;;6.07;;
16977;SDS011;8605;52.548;4.918;2022-12-18T13:25:58;16.17;;;7.90;;
16977;SDS011;8605;52.548;4.918;2022-12-18T13:31:02;12.20;;;5.73;;
16977;SDS011;8605;52.548;4.918;2022-12-18T13:36:10;13.00;;;7.73;;
16977;SDS011;8605;52.548;4.918;2022-12-18T13:41:24;20.40;;;10.43;;
16977;SDS011;8605;52.548;4.918;2022-12-18T13:46:29;15.77;;;8.40;;
16977;SDS011;8605;52.548;4.918;2022-12-18T13:51:33;13.80;;;6.67;;
16977;SDS011;8605;52.548;4.918;2022-12-18T13:56:42;10.53;;;6.57;;
16977;SDS011;8605;52.548;4.918;2022-12-18T14:01:48;13.27;;;6.87;;
16977;SDS011;8605;52.548;4.918;2022-12-18T14:06:55;10.93;;;6.53;;
16977;SDS011;8605;52.548;4.918;2022-12-18T14:12:01;11.67;;;7.13;;
16977;SDS011;8605;52.548;4.918;2022-12-18T14:17:37;15.37;;;7.10;;
16977;SDS011;8605;52.548;4.918;2022-12-18T14:22:42;16.43;;;6.83;;
16977;SDS011;8605;52.548;4.918;2022-12-18T14:27:47;11.37;;;6.93;;
16977;SDS011;8605;52.548;4.918;2022-12-18T14:33:05;14.90;;;7.20;;
16977;SDS011;8605;52.548;4.918;2022-12-18T14:38:22;13.93;;;7.57;;
16977;SDS011;8605;52.548;4.918;2022-12-18T14:43:28;14.20;;;6.27;;
16977;SDS011;8605;52.548;4.918;2022-12-18T14:48:35;12.63;;;6.80;;
16977;SDS011;8605;52.548;4.918;2022-12-18T14:53:41;15.13;;;7.10;;
16977;SDS011;8605;52.548;4.918;2022-12-18T14:58:56;14.20;;;7.40;;
16977;SDS011;8605;52.548;4.918;2022-12-18T15:04:00;11.07;;;7.37;;
16977;SDS011;8605;52.548;4.918;2022-12-18T15:09:05;15.67;;;8.10;;
16977;SDS011;8605;52.548;4.918;2022-12-18T15:14:28;10.50;;;5.50;;
16977;SDS011;8605;52.548;4.918;2022-12-18T15:19:36;25.17;;;8.83;;
16977;SDS011;8605;52.548;4.918;2022-12-18T15:24:41;14.03;;;6.50;;
16977;SDS011;8605;52.548;4.918;2022-12-18T15:29:45;13.83;;;6.97;;
16977;SDS011;8605;52.548;4.918;2022-12-18T15:35:03;16.30;;;7.67;;
16977;SDS011;8605;52.548;4.918;2022-12-18T15:40:12;17.27;;;8.10;;
16977;SDS011;8605;52.548;4.918;2022-12-18T15:45:19;14.10;;;6.87;;
16977;SDS011;8605;52.548;4.918;2022-12-18T15:50:24;13.13;;;6.63;;
16977;SDS011;8605;52.548;4.918;2022-12-18T15:55:29;15.80;;;7.63;;
16977;SDS011;8605;52.548;4.918;2022-12-18T16:00:50;21.23;;;8.87;;
16977;SDS011;8605;52.548;4.918;2022-12-18T16:05:53;19.77;;;9.10;;
16977;SDS011;8605;52.548;4.918;2022-12-18T16:10:57;14.73;;;8.17;;
16977;SDS011;8605;52.548;4.918;2022-12-18T16:16:01;17.17;;;8.03;;
16977;SDS011;8605;52.548;4.918;2022-12-18T16:21:04;15.40;;;6.73;;
16977;SDS011;8605;52.548;4.918;2022-12-18T16:26:07;13.13;;;7.00;;
16977;SDS011;8605;52.548;4.918;2022-12-18T16:31:12;17.13;;;8.23;;
16977;SDS011;8605;52.548;4.918;2022-12-18T16:36:15;16.63;;;8.57;;
16977;SDS011;8605;52.548;4.918;2022-12-18T16:41:18;11.53;;;6.50;;
16977;SDS011;8605;52.548;4.918;2022-12-18T16:46:34;12.20;;;6.90;;
16977;SDS011;8605;52.548;4.918;2022-12-18T16:51:37;23.10;;;8.70;;
16977;SDS011;8605;52.548;4.918;2022-12-18T16:56:40;10.63;;;6.80;;
16977;SDS011;8605;52.548;4.918;2022-12-18T17:01:46;15.97;;;8.40;;
16977;SDS011;8605;52.548;4.918;2022-12-18T17:06:51;22.47;;;8.03;;
16977;SDS011;8605;52.548;4.918;2022-12-18T17:11:54;20.80;;;8.37;;
16977;SDS011;8605;52.548;4.918;2022-12-18T17:16:58;17.57;;;7.93;;
16977;SDS011;8605;52.548;4.918;2022-12-18T17:22:21;19.17;;;7.97;;
16977;SDS011;8605;52.548;4.918;2022-12-18T17:27:24;18.43;;;8.67;;
16977;SDS011;8605;52.548;4.918;2022-12-18T17:32:29;18.50;;;8.40;;
16977;SDS011;8605;52.548;4.918;2022-12-18T17:37:31;17.37;;;8.17;;
16977;SDS011;8605;52.548;4.918;2022-12-18T17:42:34;16.53;;;7.97;;
16977;SDS011;8605;52.548;4.918;2022-12-18T17:47:39;17.30;;;9.07;;
16977;SDS011;8605;52.548;4.918;2022-12-18T17:52:42;18.33;;;8.60;;
16977;SDS011;8605;52.548;4.918;2022-12-18T17:57:45;15.17;;;7.83;;
16977;SDS011;8605;52.548;4.918;2022-12-18T18:02:49;18.40;;;9.50;;
16977;SDS011;8605;52.548;4.918;2022-12-18T18:07:53;16.97;;;8.07;;
16977;SDS011;8605;52.548;4.918;2022-12-18T18:12:55;17.20;;;9.60;;
16977;SDS011;8605;52.548;4.918;2022-12-18T18:18:17;18.43;;;9.10;;
16977;SDS011;8605;52.548;4.918;2022-12-18T18:23:22;18.33;;;9.37;;
16977;SDS011;8605;52.548;4.918;2022-12-18T18:28:25;16.40;;;7.90;;
16977;SDS011;8605;52.548;4.918;2022-12-18T18:33:29;13.57;;;8.20;;
16977;SDS011;8605;52.548;4.918;2022-12-18T18:38:32;14.37;;;8.97;;
16977;SDS011;8605;52.548;4.918;2022-12-18T18:43:35;18.10;;;8.57;;
16977;SDS011;8605;52.548;4.918;2022-12-18T18:48:40;17.47;;;9.43;;
16977;SDS011;8605;52.548;4.918;2022-12-18T18:53:44;20.63;;;10.23;;
16977;SDS011;8605;52.548;4.918;2022-12-18T18:58:48;22.33;;;8.23;;
16977;SDS011;8605;52.548;4.918;2022-12-18T19:03:53;16.03;;;7.97;;
16977;SDS011;8605;52.548;4.918;2022-12-18T19:08:56;19.97;;;9.83;;
16977;SDS011;8605;52.548;4.918;2022-12-18T19:14:00;18.30;;;8.37;;
16977;SDS011;8605;52.548;4.918;2022-12-18T19:19:07;17.10;;;9.80;;
16977;SDS011;8605;52.548;4.918;2022-12-18T19:24:10;19.23;;;9.60;;
16977;SDS011;8605;52.548;4.918;2022-12-18T19:29:13;16.73;;;8.73;;
16977;SDS011;8605;52.548;4.918;2022-12-18T19:34:17;20.33;;;8.93;;
16977;SDS011;8605;52.548;4.918;2022-12-18T19:39:20;18.70;;;9.37;;
16977;SDS011;8605;52.548;4.918;2022-12-18T19:44:23;20.23;;;9.27;;
16977;SDS011;8605;52.548;4.918;2022-12-18T19:49:28;15.47;;;7.93;;
16977;SDS011;8605;52.548;4.918;2022-12-18T19:54:33;15.13;;;7.23;;
16977;SDS011;8605;52.548;4.918;2022-12-18T19:59:35;19.27;;;9.73;;
16977;SDS011;8605;52.548;4.918;2022-12-18T20:04:41;17.40;;;9.33;;
16977;SDS011;8605;52.548;4.918;2022-12-18T20:09:44;22.07;;;9.10;;
16977;SDS011;8605;52.548;4.918;2022-12-18T20:14:47;20.93;;;8.90;;
16977;SDS011;8605;52.548;4.918;2022-12-18T20:19:51;21.50;;;10.37;;
16977;SDS011;8605;52.548;4.918;2022-12-18T20:24:54;18.53;;;9.03;;
16977;SDS011;8605;52.548;4.918;2022-12-18T20:29:57;19.80;;;10.00;;
16977;SDS011;8605;52.548;4.918;2022-12-18T20:35:01;16.30;;;8.53;;
16977;SDS011;8605;52.548;4.918;2022-12-18T20:40:07;17.77;;;8.83;;
16977;SDS011;8605;52.548;4.918;2022-12-18T20:45:10;31.20;;;9.40;;
16977;SDS011;8605;52.548;4.918;2022-12-18T20:50:15;22.40;;;10.27;;
16977;SDS011;8605;52.548;4.918;2022-12-18T20:55:18;26.77;;;11.30;;
16977;SDS011;8605;52.548;4.918;2022-12-18T21:00:21;18.07;;;10.17;;
16977;SDS011;8605;52.548;4.918;2022-12-18T21:05:25;24.60;;;11.20;;
16977;SDS011;8605;52.548;4.918;2022-12-18T21:10:27;21.67;;;10.97;;
16977;SDS011;8605;52.548;4.918;2022-12-18T21:15:31;26.20;;;11.03;;
16977;SDS011;8605;52.548;4.918;2022-12-18T21:20:35;28.47;;;9.00;;
16977;SDS011;8605;52.548;4.918;2022-12-18T21:25:38;19.53;;;10.47;;
16977;SDS011;8605;52.548;4.918;2022-12-18T21:30:41;26.13;;;11.90;;
16977;SDS011;8605;52.548;4.918;2022-12-18T21:35:45;27.43;;;12.80;;
16977;SDS011;8605;52.548;4.918;2022-12-18T21:40:48;24.43;;;12.93;;
16977;SDS011;8605;52.548;4.918;2022-12-18T21:45:51;23.53;;;11.20;;
16977;SDS011;8605;52.548;4.918;2022-12-18T21:50:57;22.77;;;10.17;;
16977;SDS011;8605;52.548;4.918;2022-12-18T21:56:00;28.90;;;11.80;;
16977;SDS011;8605;52.548;4.918;2022-12-18T22:01:03;22.73;;;11.60;;
16977;SDS011;8605;52.548;4.918;2022-12-18T22:06:07;17.37;;;9.83;;
16977;SDS011;8605;52.548;4.918;2022-12-18T22:11:11;19.67;;;11.20;;
16977;SDS011;8605;52.548;4.918;2022-12-18T22:16:14;31.57;;;13.67;;
16977;SDS011;8605;52.548;4.918;2022-12-18T22:21:23;30.70;;;14.47;;
16977;SDS011;8605;52.548;4.918;2022-12-18T22:26:30;27.70;;;12.73;;
16977;SDS011;8605;52.548;4.918;2022-12-18T22:31:40;29.17;;;13.10;;
16977;SDS011;8605;52.548;4.918;2022-12-18T22:36:45;32.20;;;14.27;;
16977;SDS011;8605;52.548;4.918;2022-12-18T22:41:49;26.40;;;13.17;;
16977;SDS011;8605;52.548;4.918;2022-12-18T22:46:52;28.27;;;13.90;;
16977;SDS011;8605;52.548;4.918;2022-12-18T22:52:07;30.43;;;14.23;;
16977;SDS011;8605;52.548;4.918;2022-12-18T22:57:15;29.97;;;14.03;;
16977;SDS011;8605;52.548;4.918;2022-12-18T23:02:18;30.17;;;15.27;;
16977;SDS011;8605;52.548;4.918;2022-12-18T23:07:22;35.90;;;13.30;;
16977;SDS011;8605;52.548;4.918;2022-12-18T23:12:25;37.77;;;17.60;;
16977;SDS011;8605;52.548;4.918;2022-12-18T23:17:28;30.67;;;15.13;;
16977;SDS011;8605;52.548;4.918;2022-12-18T23:22:34;30.43;;;15.20;;
16977;SDS011;8605;52.548;4.918;2022-12-18T23:27:40;29.07;;;15.47;;
16977;SDS011;8605;52.548;4.918;2022-12-18T23:32:43;29.60;;;15.47;;
16977;SDS011;8605;52.548;4.918;2022-12-18T23:37:47;33.80;;;15.40;;
16977;SDS011;8605;52.548;4.918;2022-12-18T23:42:59;39.10;;;16.53;;
16977;SDS011;8605;52.548;4.918;2022-12-18T23:48:02;31.60;;;17.00;;
16977;SDS011;8605;52.548;4.918;2022-12-18T23:53:07;39.53;;;14.40;;
16977;SDS011;8605;52.548;4.918;2022-12-18T23:58:14;31.00;;;15.43;;
